This is the latest recevied weather packets stored in our database for station/object EA1FBN. If no packets are shown the sender has not sent any weather packets the latest 1 day(s).
| Time | Temp. | Humidity | Pressure | Rain* | Wind** | Luminosity | Snow |
|---|---|---|---|---|---|---|---|
| 1777987809 | 12.78° C | 58% | 1014.8 hPa | 0 mm | 3.58 m/s, 134° | - | - |
| 1777987509 | 12.22° C | 61% | 1014.9 hPa | 0 mm | 3.13 m/s, 51° | - | - |
| 1777987209 | 11.67° C | 63% | 1014.9 hPa | 0 mm | 2.24 m/s, 108° | - | - |
| 1777986909 | 11.67° C | 62% | 1014.9 hPa | 0 mm | 2.68 m/s, 84° | - | - |
| 1777986609 | 11.67° C | 61% | 1015 hPa | 0 mm | 3.58 m/s, 103° | - | - |
| 1777986309 | 12.22° C | 60% | 1015 hPa | 0 mm | 3.58 m/s, 97° | - | - |
| 1777986009 | 12.78° C | 57% | 1014.9 hPa | 0 mm | 3.58 m/s, 24° | - | - |
| 1777985710 | 12.78° C | 59% | 1015 hPa | 0 mm | 3.58 m/s, 41° | - | - |
| 1777985409 | 12.22° C | 62% | 1015 hPa | 0 mm | 4.02 m/s, 49° | - | - |
| 1777985109 | 12.22° C | 59% | 1015.2 hPa | 0 mm | 4.02 m/s, 108° | - | - |
| 1777984810 | 12.22° C | 60% | 1015.3 hPa | 0 mm | 3.58 m/s, 108° | - | - |
| 1777984509 | 11.67° C | 61% | 1015.3 hPa | 0 mm | 3.13 m/s, 93° | - | - |
| 1777984209 | 11.11° C | 62% | 1015.4 hPa | 0 mm | 3.13 m/s, 65° | - | - |
| 1777983909 | 11.67° C | 61% | 1015.4 hPa | 0 mm | 3.58 m/s, 89° | - | - |
| 1777983610 | 11.67° C | 63% | 1015.3 hPa | 0 mm | 3.58 m/s, 109° | - | - |
| 1777983309 | 11.67° C | 61% | 1015.3 hPa | 0 mm | 3.13 m/s, 105° | - | - |
| 1777983015 | 11.67° C | 63% | 1015.4 hPa | 0 mm | 2.24 m/s, 104° | - | - |
| 1777982709 | 11.67° C | 62% | 1015.4 hPa | 0 mm | 3.13 m/s, 72° | - | - |
| 1777982409 | 11.11° C | 64% | 1015.4 hPa | 0 mm | 3.58 m/s, 105° | - | - |
| 1777982109 | 11.11° C | 63% | 1015.5 hPa | 0 mm | 3.58 m/s, 92° | - | - |
| 1777981810 | 11.11° C | 61% | 1015.6 hPa | 0 mm | 3.58 m/s, 86° | - | - |
| 1777981509 | 11.11° C | 60% | 1015.6 hPa | 0 mm | 4.02 m/s, 89° | - | - |
| 1777981210 | 11.11° C | 62% | 1015.6 hPa | 0 mm | 4.02 m/s, 117° | - | - |
| 1777980910 | 11.11° C | 64% | 1015.7 hPa | 0 mm | 3.58 m/s, 82° | - | - |
| 1777980610 | 11.11° C | 63% | 1015.7 hPa | 0 mm | 3.58 m/s, 101° | - | - |
* Rain latest hour (hover to see other rain measurements)
** Current wind speed in m/s (hover to see current wind gust speed)